createdAt,value
2022-07-29T00:02:29.188Z,99.90
2022-07-29T00:04:56.092Z,99.90
2022-07-29T00:07:22.790Z,99.90
2022-07-29T00:09:51.709Z,99.90
2022-07-29T00:12:25.612Z,99.90
2022-07-29T00:14:54.344Z,99.90
2022-07-29T00:17:21.085Z,99.90
2022-07-29T00:22:15.089Z,99.90
2022-07-29T00:24:41.870Z,99.90
2022-07-29T00:27:08.625Z,99.90
2022-07-29T00:29:35.627Z,99.90
2022-07-29T00:32:03.440Z,99.90
2022-07-29T00:34:49.330Z,99.90
2022-07-29T00:37:16.066Z,99.90
2022-07-29T00:39:42.737Z,99.90
2022-07-29T00:42:10.452Z,99.90
2022-07-29T00:44:38.732Z,99.90
2022-07-29T00:47:05.844Z,99.90
2022-07-29T00:52:01.280Z,99.90
2022-07-29T00:54:28.444Z,99.90
2022-07-29T00:59:22.326Z,99.90
2022-07-29T01:04:16.618Z,99.90
2022-07-29T01:09:12.009Z,99.90
2022-07-29T01:11:38.713Z,99.90
2022-07-29T01:14:06.002Z,99.90
2022-07-29T01:16:33.607Z,99.90
2022-07-29T01:19:14.090Z,99.90
2022-07-29T01:21:56.246Z,99.90
2022-07-29T01:24:51.247Z,99.90
2022-07-29T01:27:33.310Z,99.90
2022-07-29T01:30:00.644Z,99.90
2022-07-29T01:32:30.317Z,99.90
2022-07-29T01:35:10.128Z,99.90
2022-07-29T01:38:00.943Z,99.90
2022-07-29T01:40:50.724Z,99.90
2022-07-29T01:43:22.031Z,99.90
2022-07-29T01:46:01.370Z,99.90
2022-07-29T01:48:48.331Z,99.90
2022-07-29T01:51:25.253Z,99.90
2022-07-29T01:53:57.409Z,99.90
2022-07-29T01:56:24.553Z,99.90
2022-07-29T01:58:51.320Z,99.90
2022-07-29T02:03:47.178Z,99.90
2022-07-29T02:13:36.576Z,99.90
2022-07-29T02:16:04.043Z,99.90
2022-07-29T02:18:31.987Z,99.90
2022-07-29T02:20:59.850Z,99.90
2022-07-29T02:23:26.580Z,99.90
2022-07-29T02:25:54.970Z,99.90
2022-07-29T02:30:49.139Z,99.90
2022-07-29T02:33:17.332Z,99.90
2022-07-29T02:35:44.544Z,99.90
2022-07-29T02:38:31.516Z,99.90
2022-07-29T02:45:53.806Z,99.90
2022-07-29T02:48:21.048Z,99.90
2022-07-29T02:50:51.294Z,99.90
2022-07-29T02:53:19.800Z,99.90
2022-07-29T02:55:51.949Z,99.90
2022-07-29T02:58:34.627Z,99.90
2022-07-29T03:01:03.980Z,99.90
2022-07-29T03:03:36.939Z,99.90
2022-07-29T03:08:32.031Z,99.90
2022-07-29T03:10:58.971Z,99.90
2022-07-29T03:15:52.899Z,99.90
2022-07-29T03:23:13.888Z,99.90
2022-07-29T03:25:40.615Z,99.90
2022-07-29T03:28:07.353Z,99.90
2022-07-29T03:33:01.928Z,99.90
2022-07-29T03:35:29.315Z,99.90
2022-07-29T03:37:56.034Z,99.90
2022-07-29T03:40:28.961Z,99.90
2022-07-29T03:45:22.943Z,99.90
2022-07-29T03:47:59.921Z,99.90
2022-07-29T03:50:27.590Z,99.90
2022-07-29T03:52:54.306Z,99.90
2022-07-29T03:55:21.067Z,99.90
2022-07-29T03:57:48.303Z,99.90
2022-07-29T04:00:16.403Z,99.90
2022-07-29T04:10:09.891Z,99.90
2022-07-29T04:12:36.651Z,99.90
2022-07-29T04:15:06.746Z,99.90
2022-07-29T04:17:33.446Z,99.90
2022-07-29T04:20:00.221Z,99.90
2022-07-29T04:22:26.953Z,99.90
2022-07-29T04:24:54.284Z,99.90
2022-07-29T04:29:56.120Z,99.90
2022-07-29T04:39:45.409Z,99.90
2022-07-29T04:44:43.052Z,99.90
2022-07-29T04:47:10.054Z,99.90
2022-07-29T04:49:39.549Z,99.90
2022-07-29T04:57:01.244Z,99.90
2022-07-29T04:59:28.235Z,99.90
2022-07-29T05:01:55.199Z,99.90
2022-07-29T05:04:21.995Z,99.90
2022-07-29T05:06:49.377Z,99.90
2022-07-29T05:24:08.118Z,99.90
2022-07-29T05:29:02.111Z,99.90
2022-07-29T05:31:28.874Z,99.90
2022-07-29T05:33:55.677Z,99.90
2022-07-29T05:36:22.516Z,99.90
2022-07-29T05:43:43.571Z,99.90
2022-07-29T05:46:10.364Z,99.90
2022-07-29T05:51:04.469Z,99.90
2022-07-29T05:53:31.281Z,99.90
2022-07-29T05:55:57.994Z,99.90
2022-07-29T06:00:51.881Z,99.90
2022-07-29T06:03:18.608Z,99.90
2022-07-29T06:05:45.455Z,99.90
2022-07-29T06:08:12.145Z,99.90
2022-07-29T06:10:39.212Z,99.90
2022-07-29T06:13:06.259Z,99.90
2022-07-29T06:15:33.163Z,99.90
2022-07-29T06:20:32.380Z,99.90
2022-07-29T06:23:01.919Z,99.90
2022-07-29T06:25:31.821Z,99.90
2022-07-29T06:27:58.648Z,99.90
2022-07-29T06:30:25.398Z,99.90
2022-07-29T06:32:52.360Z,99.90
2022-07-29T06:35:39.665Z,99.90
2022-07-29T06:41:03.599Z,99.90
2022-07-29T06:43:36.145Z,99.90
2022-07-29T06:46:21.012Z,99.90
2022-07-29T06:48:51.100Z,99.90
2022-07-29T06:51:22.195Z,99.90
2022-07-29T06:54:01.653Z,99.90
2022-07-29T06:56:39.226Z,99.90
2022-07-29T06:59:07.608Z,99.90
2022-07-29T07:01:34.475Z,99.90
2022-07-29T07:04:01.313Z,99.90
2022-07-29T07:06:28.441Z,99.90
2022-07-29T07:08:55.208Z,99.90
2022-07-29T07:11:21.924Z,99.90
2022-07-29T07:16:20.105Z,99.90
2022-07-29T07:18:46.824Z,99.90
2022-07-29T07:21:19.070Z,99.90
2022-07-29T07:23:46.707Z,99.90
2022-07-29T07:26:13.434Z,99.90
2022-07-29T07:28:40.119Z,99.90
2022-07-29T07:31:06.847Z,99.90
2022-07-29T07:33:33.523Z,99.90
2022-07-29T07:36:00.230Z,99.90
2022-07-29T07:38:26.901Z,99.90
2022-07-29T07:40:53.600Z,99.90
2022-07-29T07:43:20.398Z,99.90
2022-07-29T07:45:47.165Z,99.90
2022-07-29T07:48:14.059Z,99.90
2022-07-29T07:50:40.801Z,99.90
2022-07-29T07:53:07.662Z,99.90
2022-07-29T07:55:53.569Z,99.90
2022-07-29T07:58:21.037Z,99.90
2022-07-29T08:00:48.180Z,99.90
2022-07-29T08:03:17.183Z,99.90
2022-07-29T08:05:44.214Z,99.90
2022-07-29T08:08:10.923Z,99.90
2022-07-29T08:10:56.302Z,99.90
2022-07-29T08:13:28.678Z,99.90
2022-07-29T08:15:58.914Z,99.90
2022-07-29T08:18:26.807Z,99.90
2022-07-29T08:20:53.627Z,99.90
2022-07-29T08:28:17.685Z,99.90
2022-07-29T08:30:44.462Z,99.90
2022-07-29T08:35:39.346Z,99.90
2022-07-29T08:38:06.063Z,99.90
2022-07-29T08:40:32.916Z,99.90
2022-07-29T08:43:04.660Z,99.90
2022-07-29T08:45:42.430Z,99.90
2022-07-29T08:48:14.796Z,99.90
2022-07-29T08:50:42.529Z,99.90
2022-07-29T08:53:17.592Z,99.90
2022-07-29T08:55:44.990Z,99.90
2022-07-29T08:58:11.740Z,99.90
2022-07-29T09:00:44.253Z,99.90
2022-07-29T09:03:13.849Z,99.90
2022-07-29T09:05:47.524Z,99.90
2022-07-29T09:08:15.246Z,99.90
2022-07-29T09:10:41.967Z,99.90
2022-07-29T09:13:08.774Z,99.90
2022-07-29T09:15:35.598Z,99.90
2022-07-29T09:20:58.954Z,99.90
2022-07-29T09:25:52.838Z,99.90
2022-07-29T09:28:19.544Z,99.90
2022-07-29T09:30:57.062Z,99.90
2022-07-29T09:33:24.284Z,99.90
2022-07-29T09:36:04.754Z,99.90
2022-07-29T09:41:05.481Z,99.90
2022-07-29T09:43:33.019Z,99.90
2022-07-29T09:46:13.066Z,99.90
2022-07-29T09:48:39.938Z,99.90
2022-07-29T09:51:07.438Z,99.90
2022-07-29T09:53:38.678Z,99.90
2022-07-29T09:56:05.917Z,99.90
2022-07-29T09:58:34.633Z,99.90
2022-07-29T10:01:01.417Z,99.90
2022-07-29T10:03:28.306Z,99.90
2022-07-29T10:06:11.504Z,99.90
2022-07-29T10:08:38.593Z,99.90
2022-07-29T10:11:15.661Z,99.90
2022-07-29T10:13:43.414Z,99.90
2022-07-29T10:16:10.409Z,99.90
2022-07-29T10:18:41.636Z,99.90
2022-07-29T10:21:08.324Z,99.90
2022-07-29T10:23:46.472Z,99.90
2022-07-29T10:26:14.024Z,99.90
2022-07-29T10:28:40.749Z,99.90
2022-07-29T10:31:09.221Z,99.90
2022-07-29T10:34:04.533Z,99.90
2022-07-29T10:37:00.537Z,99.90
2022-07-29T10:39:41.803Z,99.90
2022-07-29T10:42:14.683Z,99.90
2022-07-29T10:44:46.693Z,99.90
2022-07-29T10:47:22.008Z,99.90
2022-07-29T10:50:03.754Z,99.90
2022-07-29T10:52:55.449Z,99.90
2022-07-29T10:55:49.389Z,99.90
2022-07-29T10:58:17.843Z,99.90
2022-07-29T11:00:45.760Z,99.90
2022-07-29T11:03:50.711Z,99.90
2022-07-29T11:06:26.835Z,99.90
2022-07-29T11:09:25.878Z,99.90
2022-07-29T11:12:02.416Z,99.90
2022-07-29T11:14:55.689Z,99.90
2022-07-29T11:17:23.429Z,99.90
2022-07-29T11:19:52.264Z,99.90
2022-07-29T11:22:34.862Z,99.90
2022-07-29T11:25:17.716Z,99.90
2022-07-29T11:27:45.870Z,99.90
2022-07-29T11:30:13.139Z,99.90
2022-07-29T11:32:44.982Z,99.90
2022-07-29T11:37:52.838Z,99.90
2022-07-29T11:40:24.516Z,99.90
2022-07-29T11:42:52.233Z,99.90
2022-07-29T11:45:43.337Z,99.90
2022-07-29T11:48:29.937Z,99.90
2022-07-29T11:50:59.203Z,99.90
2022-07-29T11:53:25.916Z,99.90
2022-07-29T11:55:56.294Z,99.90
2022-07-29T11:58:26.256Z,99.90
2022-07-29T12:01:15.187Z,99.90
2022-07-29T12:03:43.715Z,99.90
2022-07-29T12:06:15.221Z,99.90
2022-07-29T12:08:43.619Z,99.90
2022-07-29T12:11:22.832Z,99.90
2022-07-29T12:13:51.831Z,98.10
2022-07-29T12:16:26.165Z,97.30
2022-07-29T12:19:03.741Z,99.50
2022-07-29T12:21:56.297Z,98.60
2022-07-29T12:24:27.005Z,99.00
2022-07-29T12:26:57.977Z,99.70
2022-07-29T12:29:33.628Z,99.00
2022-07-29T12:32:02.201Z,99.30
2022-07-29T12:34:29.049Z,99.90
2022-07-29T12:36:56.565Z,99.60
2022-07-29T12:39:23.330Z,99.20
2022-07-29T12:41:50.050Z,97.80
2022-07-29T12:44:16.814Z,98.40
2022-07-29T12:46:43.637Z,99.80
2022-07-29T12:49:10.559Z,99.90
2022-07-29T12:51:38.868Z,99.90
2022-07-29T12:54:11.235Z,99.90
2022-07-29T12:56:43.719Z,99.90
2022-07-29T12:59:22.296Z,99.90
2022-07-29T13:01:50.438Z,98.70
2022-07-29T13:04:30.743Z,99.60
2022-07-29T13:07:01.334Z,99.90
2022-07-29T13:09:44.621Z,99.90
2022-07-29T13:12:13.134Z,99.90
2022-07-29T13:14:43.685Z,99.90
2022-07-29T13:17:12.148Z,99.90
2022-07-29T13:19:43.484Z,99.90
2022-07-29T13:22:11.285Z,99.90
2022-07-29T13:24:53.272Z,98.70
2022-07-29T13:27:21.239Z,98.40
2022-07-29T13:29:48.147Z,98.20
2022-07-29T13:32:14.915Z,98.90
2022-07-29T13:34:41.892Z,98.80
2022-07-29T13:37:08.625Z,99.40
2022-07-29T13:39:35.428Z,99.30
2022-07-29T13:42:02.170Z,99.70
2022-07-29T13:46:59.791Z,97.80
2022-07-29T13:49:27.084Z,98.60
2022-07-29T13:51:54.082Z,98.30
2022-07-29T13:54:23.288Z,98.40
2022-07-29T13:56:53.368Z,99.60
2022-07-29T13:59:20.508Z,99.40
2022-07-29T14:01:47.324Z,99.90
2022-07-29T14:04:14.060Z,99.90
2022-07-29T14:06:40.847Z,97.60
2022-07-29T14:09:09.443Z,97.90
2022-07-29T14:11:36.714Z,95.50
2022-07-29T14:14:03.520Z,95.80
2022-07-29T14:16:30.273Z,93.80
2022-07-29T14:21:26.316Z,93.30
2022-07-29T14:23:53.802Z,92.50
2022-07-29T14:26:24.070Z,91.50
2022-07-29T14:28:51.166Z,89.40
2022-07-29T14:31:17.958Z,87.90
2022-07-29T14:33:46.269Z,87.80
2022-07-29T14:36:16.133Z,81.30
2022-07-29T14:41:10.108Z,80.10
2022-07-29T14:43:36.878Z,84.40
2022-07-29T14:46:08.058Z,84.40
2022-07-29T14:48:35.131Z,87.10
2022-07-29T14:51:04.667Z,86.30
2022-07-29T14:53:31.715Z,88.30
2022-07-29T14:56:06.241Z,87.90
2022-07-29T14:58:50.154Z,88.90
2022-07-29T15:01:20.707Z,90.30
2022-07-29T15:03:47.500Z,90.10
2022-07-29T15:06:14.212Z,91.70
2022-07-29T15:08:40.999Z,93.00
2022-07-29T15:11:07.719Z,95.00
2022-07-29T15:13:34.776Z,95.70
2022-07-29T15:16:01.474Z,97.00
2022-07-29T15:18:28.208Z,97.50
2022-07-29T15:20:54.903Z,97.80
2022-07-29T15:23:21.657Z,96.90
2022-07-29T15:25:48.380Z,96.20
2022-07-29T15:28:15.106Z,96.50
2022-07-29T15:30:44.856Z,97.00
2022-07-29T15:33:11.751Z,97.40
2022-07-29T15:35:40.071Z,96.00
2022-07-29T15:38:07.624Z,94.40
2022-07-29T15:40:34.316Z,95.20
2022-07-29T15:43:06.527Z,94.50
2022-07-29T15:45:40.894Z,98.40
2022-07-29T15:50:35.748Z,99.80
2022-07-29T15:53:02.599Z,99.50
2022-07-29T15:55:29.379Z,99.90
2022-07-29T15:58:00.248Z,99.90
2022-07-29T16:00:27.435Z,99.90
2022-07-29T16:02:54.125Z,99.90
2022-07-29T16:05:20.866Z,99.90
2022-07-29T16:07:47.706Z,99.90
2022-07-29T16:10:14.371Z,99.90
2022-07-29T16:12:41.054Z,99.90
2022-07-29T16:15:10.469Z,99.90
2022-07-29T16:17:38.115Z,99.90
2022-07-29T16:20:06.153Z,99.90
2022-07-29T16:22:32.854Z,99.90
2022-07-29T16:24:59.635Z,99.90
2022-07-29T16:32:30.743Z,99.50
2022-07-29T16:34:58.537Z,99.90
2022-07-29T16:37:25.216Z,99.90
2022-07-29T16:42:44.302Z,99.90
2022-07-29T16:47:37.357Z,99.90
2022-07-29T16:50:05.083Z,99.90
2022-07-29T16:57:26.134Z,99.90
2022-07-29T17:02:20.052Z,99.90
2022-07-29T17:07:14.378Z,99.90
2022-07-29T17:09:41.322Z,99.90
2022-07-29T17:12:08.381Z,99.90
2022-07-29T17:14:35.088Z,99.90
2022-07-29T17:19:31.308Z,99.90
2022-07-29T17:22:05.046Z,99.90
2022-07-29T17:24:36.168Z,99.90
2022-07-29T17:27:02.990Z,99.90
2022-07-29T17:29:29.745Z,99.90
2022-07-29T17:34:26.260Z,99.90
2022-07-29T17:41:47.470Z,99.90
2022-07-29T17:44:14.314Z,99.90
2022-07-29T17:46:41.283Z,99.90
2022-07-29T17:49:08.231Z,99.90
2022-07-29T17:51:35.020Z,99.90
2022-07-29T18:01:23.859Z,99.90
2022-07-29T18:03:50.715Z,99.90
2022-07-29T18:08:47.530Z,99.90
2022-07-29T18:13:42.220Z,99.90
2022-07-29T18:16:11.961Z,99.90
2022-07-29T18:18:38.769Z,99.90
2022-07-29T18:23:32.849Z,99.90
2022-07-29T18:28:26.858Z,99.90
2022-07-29T18:30:53.725Z,99.90
2022-07-29T18:33:22.031Z,99.90
2022-07-29T18:35:50.782Z,99.90
2022-07-29T18:50:40.598Z,99.90
2022-07-29T18:53:07.433Z,99.90
2022-07-29T19:02:56.761Z,99.90
2022-07-29T19:05:23.708Z,99.90
2022-07-29T19:07:50.633Z,99.90
2022-07-29T19:17:46.891Z,99.90
2022-07-29T19:20:14.424Z,99.90
2022-07-29T19:27:36.707Z,99.90
2022-07-29T19:30:06.138Z,99.90
2022-07-29T19:32:33.070Z,99.90
2022-07-29T19:35:18.325Z,99.90
2022-07-29T19:37:45.271Z,99.90
2022-07-29T19:42:39.955Z,99.90
2022-07-29T19:45:07.105Z,99.90
2022-07-29T19:47:33.999Z,99.90
2022-07-29T19:50:01.023Z,99.90
2022-07-29T19:52:28.161Z,99.90
2022-07-29T20:04:45.592Z,99.90
2022-07-29T20:07:13.075Z,99.90
2022-07-29T20:12:08.962Z,99.90
2022-07-29T20:14:35.838Z,99.90
2022-07-29T20:17:02.855Z,99.90
2022-07-29T20:26:52.543Z,99.90
2022-07-29T20:36:50.395Z,99.90
2022-07-29T20:39:17.161Z,99.90
2022-07-29T20:41:44.350Z,99.90
2022-07-29T20:46:39.427Z,99.90
2022-07-29T20:49:06.422Z,99.90
2022-07-29T20:51:33.279Z,99.90
2022-07-29T20:54:10.986Z,99.90
2022-07-29T20:56:38.178Z,99.90
2022-07-29T20:59:05.076Z,99.90
2022-07-29T21:14:09.657Z,99.90
2022-07-29T21:19:05.409Z,99.90
2022-07-29T21:24:02.534Z,99.90
2022-07-29T21:39:07.248Z,99.90
2022-07-29T21:44:02.082Z,99.90
2022-07-29T21:56:19.986Z,99.90
2022-07-29T22:08:45.813Z,99.90
2022-07-29T22:11:13.319Z,99.90
2022-07-29T22:13:40.074Z,99.90
2022-07-29T22:16:07.143Z,99.90
2022-07-29T22:18:33.873Z,99.90
2022-07-29T22:21:00.588Z,99.90
2022-07-29T22:28:21.915Z,99.90
2022-07-29T22:30:48.720Z,99.90
2022-07-29T22:35:45.010Z,99.90
2022-07-29T22:38:15.652Z,99.90
2022-07-29T22:43:10.722Z,99.90
2022-07-29T22:45:37.555Z,99.90
2022-07-29T22:48:05.310Z,99.90
2022-07-29T22:50:32.024Z,99.90
2022-07-29T22:57:53.007Z,99.90
2022-07-29T23:10:09.999Z,99.90
2022-07-29T23:15:05.177Z,99.90
2022-07-29T23:20:07.894Z,99.90
2022-07-29T23:22:35.754Z,99.90
2022-07-29T23:25:02.487Z,99.90
2022-07-29T23:27:29.238Z,99.90
2022-07-29T23:29:56.003Z,99.90
2022-07-29T23:32:22.736Z,99.90
2022-07-29T23:34:49.434Z,99.90
2022-07-29T23:37:16.138Z,99.90
2022-07-29T23:39:42.886Z,99.90
2022-07-29T23:47:04.340Z,99.90
2022-07-29T23:49:31.214Z,99.90
2022-07-29T23:54:25.039Z,99.90
2022-07-29T23:56:51.769Z,99.90
2022-07-29T23:59:18.527Z,99.90
